Terminal Aerodrome Forecast
Issued by NWS Blacksburg, VA

Current Version | Previous Version | Graphics & Text | Print | Product List | Glossary On
Versions: 1 2 3 4 5 6 7 8 9 10 11 12 13 14 15 16 17 18 19 20 21 22 23 24 25 26 27 28 29 30 31 32 33 34 35 36 37 38 39
207
FTUS41 KRNK 122023 AAB
TAFBLF
TAF AMD
KBLF 122023Z 1220/1318 30008G18KT P6SM -SHSN OVC010
      TEMPO 1220/1221 5SM -SN OVC005
     FM130200 30016G35KT 2SM -SHSN OVC007
     FM131200 30012G25KT 4SM -SHSN OVC012=

USA.gov is the U.S. government's official web portal to all federal, state and local government web resources and services.